Time;durP1;ratioP1;P1;durP2;ratioP2;P2;SDS_P1;SDS_P2;PMS_P1;PMS_P2;Temp;Humidity;BMP_temperature;BMP_pressure;BME280_temperature;BME280_humidity;BME280_pressure;Samples;Min_cycle;Max_cycle;Signal;HPM_P1;HPM_P2
2022/05/07 00:01:44;;;;;;;6.00;5.80;;;;;;;11.82;48.91;101457.38;5051013;28;20386;-61
2022/05/07 00:04:09;;;;;;;5.75;5.55;;;;;;;11.97;48.65;101450.47;5041843;28;20051;-63
2022/05/07 00:06:35;;;;;;;5.90;5.70;;;;;;;11.85;49.22;101452.56;5050661;28;20178;-61
2022/05/07 00:09:00;;;;;;;5.60;5.40;;;;;;;11.88;48.88;101443.44;5049596;28;20032;-62
2022/05/07 00:11:26;;;;;;;5.75;5.55;;;;;;;11.91;48.54;101450.28;5047983;28;20538;-59
2022/05/07 00:13:51;;;;;;;5.95;5.75;;;;;;;11.96;49.14;101438.16;5049928;28;20431;-62
2022/05/07 00:19:01;;;;;;;;;;;;;;;12.10;48.35;101455.31;5047461;28;20072;-60
2022/05/07 00:21:27;;;;;;;5.60;5.40;;;;;;;11.97;49.28;101450.47;5052529;28;19978;-62
2022/05/07 00:23:53;;;;;;;5.70;5.50;;;;;;;11.92;49.64;101450.13;5052073;28;20039;-62
2022/05/07 00:26:18;;;;;;;5.82;5.63;;;;;;;12.01;48.62;101435.00;5051783;28;20062;-61
2022/05/07 00:28:47;;;;;;;5.60;5.40;;;;;;;11.91;48.89;101452.94;5050397;28;20028;-62
2022/05/07 00:31:12;;;;;;;5.90;5.70;;;;;;;12.01;48.97;101443.00;5043428;28;20033;-61
2022/05/07 00:33:38;;;;;;;5.78;5.57;;;;;;;11.99;49.03;101442.31;5058232;28;20032;-62
2022/05/07 00:36:04;;;;;;;6.00;5.80;;;;;;;11.87;49.37;101439.94;5051593;28;20041;-61
2022/05/07 00:38:29;;;;;;;6.03;5.82;;;;;;;11.86;49.00;101443.59;5052004;28;20040;-62
2022/05/07 00:40:55;;;;;;;5.75;5.55;;;;;;;11.84;49.72;101445.59;5050895;28;20032;-61
2022/05/07 00:43:21;;;;;;;5.82;5.63;;;;;;;11.92;49.29;101439.47;5051063;28;20120;-61
2022/05/07 00:45:47;;;;;;;5.90;5.70;;;;;;;11.91;49.08;101445.78;5037165;28;20055;-62
2022/05/07 00:48:16;;;;;;;5.95;5.75;;;;;;;11.88;49.22;101446.09;5050711;28;20083;-61
2022/05/07 00:53:34;;;;;;;5.80;5.60;;;;;;;11.92;49.39;101446.63;5045755;28;20497;-60
2022/05/07 00:56:00;;;;;;;6.25;5.95;;;;;;;11.60;51.44;101441.00;5051735;28;20029;-62
2022/05/07 00:58:25;;;;;;;6.00;5.80;;;;;;;11.70;50.32;101445.34;5040304;28;20495;-62
2022/05/07 01:00:53;;;;;;;6.18;5.93;;;;;;;11.57;51.03;101435.13;5046591;28;20029;-62
2022/05/07 01:03:19;;;;;;;6.90;6.60;;;;;;;11.31;53.17;101430.69;5049421;28;20502;-61
2022/05/07 01:05:45;;;;;;;6.22;5.93;;;;;;;11.15;53.61;101435.06;5047258;28;20488;-61
2022/05/07 01:08:12;;;;;;;5.80;5.60;;;;;;;10.94;55.16;101438.06;5051905;28;20079;-62
2022/05/07 01:10:38;;;;;;;5.82;5.63;;;;;;;11.18;52.88;101426.81;5046579;28;20450;-60
2022/05/07 01:13:04;;;;;;;6.03;5.82;;;;;;;10.96;54.53;101436.09;5041660;28;20037;-63
2022/05/07 01:15:30;;;;;;;6.10;5.85;;;;;;;11.01;53.84;101433.81;5049261;28;20033;-61
2022/05/07 01:17:56;;;;;;;5.95;5.75;;;;;;;10.42;58.59;101440.59;5049585;28;20029;-62
2022/05/07 01:20:22;;;;;;;6.57;6.28;;;;;;;9.94;60.27;101434.63;5049785;28;20346;-60
2022/05/07 01:22:49;;;;;;;5.90;5.70;;;;;;;9.78;62.21;101434.44;5049506;28;20025;-61
2022/05/07 01:25:15;;;;;;;5.80;5.60;;;;;;;9.55;63.54;101431.34;5041985;28;20030;-61
2022/05/07 01:27:40;;;;;;;5.78;5.57;;;;;;;9.53;64.16;101433.28;5042330;28;20498;-61
2022/05/07 01:30:06;;;;;;;6.20;5.90;;;;;;;9.42;64.17;101430.81;5051627;28;20593;-62
2022/05/07 01:32:32;;;;;;;5.90;5.70;;;;;;;9.30;66.06;101430.16;5054865;28;20009;-61
2022/05/07 01:34:57;;;;;;;5.88;5.68;;;;;;;9.53;64.89;101430.63;5051692;28;20029;-61
2022/05/07 01:37:24;;;;;;;5.88;5.68;;;;;;;9.41;64.94;101429.16;5050971;28;20043;-61
2022/05/07 01:39:50;;;;;;;5.88;5.68;;;;;;;9.38;66.54;101430.28;5038541;28;20033;-62
2022/05/07 01:42:16;;;;;;;6.43;6.13;;;;;;;9.08;67.34;101409.31;5046882;28;20559;-61
2022/05/07 01:44:42;;;;;;;6.32;6.03;;;;;;;9.22;67.56;101427.41;5047814;28;20036;-62
2022/05/07 01:49:51;;;;;;;5.70;5.50;;;;;;;9.25;67.82;101421.81;5051524;28;20031;-61
2022/05/07 01:52:17;;;;;;;6.20;5.90;;;;;;;9.04;68.26;101418.53;5051927;28;20100;-61
2022/05/07 01:54:43;;;;;;;6.63;6.32;;;;;;;8.84;68.92;101425.66;5053714;28;20455;-61
2022/05/07 01:57:08;;;;;;;6.07;5.82;;;;;;;8.73;69.38;101418.72;5054414;28;20040;-61
2022/05/07 01:59:34;;;;;;;5.80;5.60;;;;;;;8.70;69.01;101419.00;5054351;28;20045;-61
2022/05/07 02:01:59;;;;;;;5.80;5.60;;;;;;;8.68;69.38;101414.84;5052528;28;20060;-61
2022/05/07 02:04:25;;;;;;;5.90;5.70;;;;;;;8.74;69.38;101417.75;5054966;28;20021;-62
2022/05/07 02:06:50;;;;;;;5.70;5.50;;;;;;;8.77;69.14;101413.97;5048446;28;20025;-62
2022/05/07 02:09:16;;;;;;;6.20;5.90;;;;;;;8.69;68.91;101416.50;5052020;28;20067;-63
2022/05/07 02:11:41;;;;;;;5.80;5.60;;;;;;;8.74;69.39;101419.53;5046746;28;20017;-62
2022/05/07 02:14:07;;;;;;;5.88;5.68;;;;;;;8.73;69.16;101424.00;5051946;28;20029;-62
2022/05/07 02:16:32;;;;;;;5.82;5.63;;;;;;;8.64;69.67;101418.72;5054574;28;20048;-62
2022/05/07 02:18:58;;;;;;;5.70;5.50;;;;;;;8.60;70.36;101412.91;5052671;28;20044;-62
2022/05/07 02:21:24;;;;;;;5.72;5.53;;;;;;;8.60;70.80;101417.34;5054541;28;20521;-62
2022/05/07 02:23:49;;;;;;;6.18;5.88;;;;;;;8.54;70.01;101413.44;5051013;28;20025;-61
2022/05/07 02:26:15;;;;;;;6.15;5.88;;;;;;;8.50;70.31;101418.16;5053947;28;20029;-62
2022/05/07 02:28:41;;;;;;;6.20;5.90;;;;;;;8.48;71.01;101425.41;5054029;28;20021;-62
2022/05/07 02:31:06;;;;;;;5.80;5.60;;;;;;;8.47;70.86;101426.38;5041659;28;20028;-62
2022/05/07 02:33:31;;;;;;;6.13;5.85;;;;;;;8.38;71.90;101419.31;5060609;28;20075;-62
2022/05/07 02:35:57;;;;;;;5.80;5.60;;;;;;;8.30;71.68;101422.59;5052090;28;20078;-61
2022/05/07 02:38:22;;;;;;;6.00;5.78;;;;;;;8.43;71.88;101421.50;5045224;28;20028;-61
2022/05/07 02:43:32;;;;;;;5.53;5.32;;;;;;;8.36;72.29;101417.75;5053756;28;20113;-61
2022/05/07 02:45:57;;;;;;;6.88;6.57;;;;;;;8.31;72.54;101418.16;5051259;28;20128;-62
2022/05/07 02:48:25;;;;;;;5.70;5.50;;;;;;;8.25;73.52;101418.69;5042234;28;20033;-62
2022/05/07 02:50:50;;;;;;;5.88;5.68;;;;;;;8.23;73.19;101416.19;5049809;28;20025;-61
2022/05/07 02:53:16;;;;;;;5.82;5.63;;;;;;;8.29;73.52;101418.25;5038502;28;20082;-62
2022/05/07 02:55:41;;;;;;;5.70;5.50;;;;;;;8.41;73.06;101416.38;5053414;28;20025;-62
2022/05/07 02:58:08;;;;;;;5.70;5.50;;;;;;;8.42;72.11;101420.69;5046253;28;20049;-61
2022/05/07 03:00:34;;;;;;;6.20;5.90;;;;;;;8.69;71.40;101408.56;5052241;28;20035;-62
2022/05/07 03:02:59;;;;;;;5.80;5.60;;;;;;;8.69;71.20;101413.84;5051787;28;20037;-61
2022/05/07 03:05:25;;;;;;;5.72;5.53;;;;;;;8.54;72.74;101416.94;5052500;28;20024;-61
2022/05/07 03:07:50;;;;;;;5.90;5.68;;;;;;;8.42;72.25;101401.34;5053165;28;20032;-61
2022/05/07 03:10:17;;;;;;;5.95;5.75;;;;;;;8.47;72.75;101410.53;5052743;28;20029;-62
2022/05/07 03:12:43;;;;;;;7.40;7.07;;;;;;;8.50;72.14;101399.66;5052680;28;20062;-62
2022/05/07 03:15:09;;;;;;;5.90;5.70;;;;;;;8.41;73.46;101410.25;5052964;28;20108;-62
2022/05/07 03:17:36;;;;;;;5.90;5.70;;;;;;;8.54;72.20;101410.81;5052570;28;20032;-62
2022/05/07 03:20:06;;;;;;;5.75;5.55;;;;;;;8.45;72.68;101416.94;5046980;28;20043;-61
2022/05/07 03:22:31;;;;;;;5.75;5.55;;;;;;;8.60;71.46;101409.41;5050368;28;20074;-61
2022/05/07 03:24:57;;;;;;;5.72;5.53;;;;;;;8.56;72.11;101414.97;5049571;28;20024;-62
2022/05/07 03:27:23;;;;;;;5.65;5.45;;;;;;;8.63;71.32;101414.41;5052744;28;20203;-62
2022/05/07 03:29:49;;;;;;;6.40;6.10;;;;;;;8.68;71.45;101414.84;5052228;28;20480;-62
2022/05/07 03:32:14;;;;;;;5.90;5.70;;;;;;;8.81;71.15;101420.66;5053921;28;20173;-61
2022/05/07 03:34:40;;;;;;;6.22;5.93;;;;;;;8.79;71.28;101417.31;5053469;28;20384;-62
2022/05/07 03:37:06;;;;;;;6.00;5.80;;;;;;;8.79;71.11;101419.97;5051393;28;20029;-61
2022/05/07 03:39:32;;;;;;;5.95;5.75;;;;;;;8.91;70.80;101424.13;5050930;28;20025;-61
2022/05/07 03:41:58;;;;;;;6.22;5.93;;;;;;;8.91;70.41;101421.50;5050880;28;20021;-61
2022/05/07 03:44:23;;;;;;;5.70;5.50;;;;;;;9.03;70.84;101427.44;5052435;28;20476;-62
2022/05/07 03:46:48;;;;;;;5.80;5.60;;;;;;;8.90;70.73;101425.13;5045853;28;20404;-62
2022/05/07 03:49:15;;;;;;;5.70;5.50;;;;;;;9.00;71.13;101433.03;5035690;28;20112;-61
2022/05/07 03:54:26;;;;;;;6.20;5.90;;;;;;;9.10;70.99;101426.72;5049810;28;20480;-62
2022/05/07 03:56:52;;;;;;;5.72;5.53;;;;;;;9.23;70.06;101433.53;5052401;28;20029;-61
2022/05/07 03:59:19;;;;;;;5.95;5.75;;;;;;;9.10;71.44;101434.66;5052029;28;20571;-62
2022/05/07 04:01:44;;;;;;;6.60;6.30;;;;;;;9.47;69.79;101433.84;5051732;28;20032;-61
2022/05/07 04:04:11;;;;;;;5.80;5.60;;;;;;;9.72;68.02;101435.03;5064268;28;20059;-61
2022/05/07 04:06:36;;;;;;;5.78;5.57;;;;;;;9.81;67.62;101434.13;5052475;28;20116;-62
2022/05/07 04:09:02;;;;;;;6.20;5.90;;;;;;;9.65;68.60;101441.88;5037547;28;20041;-62
2022/05/07 04:11:27;;;;;;;6.00;5.80;;;;;;;9.74;68.21;101442.81;5051114;28;20454;-61
2022/05/07 04:13:52;;;;;;;5.95;5.75;;;;;;;9.96;67.69;101440.59;5052427;28;20500;-61
2022/05/07 04:16:18;;;;;;;5.90;5.70;;;;;;;10.09;67.47;101445.56;5052353;28;20110;-61
2022/05/07 04:18:43;;;;;;;6.03;5.82;;;;;;;10.70;64.76;101450.16;5051529;28;20418;-61
2022/05/07 04:21:09;;;;;;;5.97;5.78;;;;;;;10.96;64.40;101452.03;5045696;28;20025;-62
2022/05/07 04:23:34;;;;;;;5.70;5.50;;;;;;;11.05;62.48;101451.09;5051834;28;20021;-62
2022/05/07 04:26:00;;;;;;;5.95;5.75;;;;;;;10.97;62.52;101448.38;5043668;28;20029;-61
2022/05/07 04:28:25;;;;;;;6.00;5.80;;;;;;;11.62;61.49;101456.78;5048313;28;20436;-61
2022/05/07 04:30:51;;;;;;;5.90;5.70;;;;;;;11.99;59.77;101461.78;5048760;28;20033;-62
2022/05/07 04:33:16;;;;;;;6.85;6.55;;;;;;;12.19;58.21;101462.31;5043466;28;20021;-62
2022/05/07 04:35:42;;;;;;;6.55;6.25;;;;;;;13.64;54.24;101462.47;5043860;28;20453;-61
2022/05/07 04:38:07;;;;;;;6.50;6.20;;;;;;;14.61;52.11;101461.13;5053816;28;20027;-61
2022/05/07 04:40:33;;;;;;;5.90;5.70;;;;;;;14.50;50.71;101466.91;5048016;28;20754;-62
2022/05/07 04:42:58;;;;;;;6.43;6.13;;;;;;;14.46;51.17;101473.59;5051585;28;20021;-62
2022/05/07 04:45:25;;;;;;;6.07;5.88;;;;;;;14.68;50.11;101473.78;5045285;28;20029;-62
2022/05/07 04:47:52;;;;;;;6.60;6.30;;;;;;;14.12;50.78;101476.63;5044499;28;20029;-62
2022/05/07 04:50:17;;;;;;;6.55;6.25;;;;;;;16.33;45.75;101476.22;5050476;28;20067;-62
2022/05/07 04:52:43;;;;;;;6.60;6.30;;;;;;;16.12;47.45;101465.47;5051150;28;20057;-63
2022/05/07 04:55:08;;;;;;;6.22;6.03;;;;;;;15.58;48.33;101473.81;5051704;28;20079;-61
2022/05/07 04:57:34;;;;;;;6.53;6.22;;;;;;;18.43;41.62;101477.03;5048380;28;20025;-62
2022/05/07 05:00:00;;;;;;;6.50;6.20;;;;;;;17.89;41.76;101473.34;5037682;28;20039;-62
2022/05/07 05:02:25;;;;;;;6.50;6.20;;;;;;;17.72;42.39;101469.38;5049676;28;20028;-62
2022/05/07 05:04:51;;;;;;;6.35;6.07;;;;;;;18.20;41.56;101472.03;5051417;28;20024;-62
2022/05/07 05:07:16;;;;;;;6.70;6.40;;;;;;;19.22;38.88;101470.94;5050907;28;20025;-62
2022/05/07 05:09:42;;;;;;;6.70;6.40;;;;;;;19.17;39.43;101474.25;5051474;28;20365;-63
2022/05/07 05:12:08;;;;;;;6.70;6.40;;;;;;;18.84;39.44;101470.75;5053055;28;20021;-61
2022/05/07 05:17:17;;;;;;;6.68;6.38;;;;;;;18.73;40.51;101473.03;5042282;28;20040;-62
2022/05/07 05:19:43;;;;;;;6.68;6.38;;;;;;;16.41;43.69;101473.41;5050281;28;20481;-62
2022/05/07 05:22:08;;;;;;;6.63;6.32;;;;;;;16.75;42.64;101475.44;5049724;28;20106;-62
2022/05/07 05:24:34;;;;;;;7.00;6.70;;;;;;;18.23;40.40;101474.31;5035862;28;20029;-63
2022/05/07 05:26:59;;;;;;;6.78;6.47;;;;;;;19.72;38.81;101471.28;5044125;28;20028;-64
2022/05/07 05:29:24;;;;;;;7.00;6.70;;;;;;;17.71;41.17;101475.75;5054678;28;20469;-62
2022/05/07 05:31:50;;;;;;;6.78;6.47;;;;;;;18.43;39.70;101471.66;5036669;28;20067;-62
2022/05/07 05:34:15;;;;;;;7.00;6.70;;;;;;;18.83;40.21;101480.66;5052219;28;20048;-62
2022/05/07 05:36:41;;;;;;;6.80;6.50;;;;;;;18.26;40.59;101483.81;5042593;28;20067;-62
2022/05/07 05:39:07;;;;;;;6.70;6.40;;;;;;;18.64;39.12;101484.94;5054654;28;20025;-61
2022/05/07 05:41:33;;;;;;;6.90;6.60;;;;;;;16.32;43.33;101484.44;5046238;28;20107;-62
2022/05/07 05:43:59;;;;;;;7.13;6.82;;;;;;;16.98;42.60;101498.53;5041936;28;20040;-62
2022/05/07 05:46:25;;;;;;;6.93;6.63;;;;;;;17.92;41.41;101493.59;5051638;28;20028;-62
2022/05/07 05:48:50;;;;;;;7.05;6.75;;;;;;;17.45;42.04;101489.81;5042274;28;20396;-62
2022/05/07 05:51:16;;;;;;;7.00;6.70;;;;;;;17.91;41.55;101494.63;5051450;28;20025;-62
2022/05/07 05:53:41;;;;;;;6.75;6.45;;;;;;;17.35;42.42;101492.00;5046027;28;20360;-62
2022/05/07 05:56:07;;;;;;;6.45;6.15;;;;;;;18.57;40.50;101494.03;5047830;28;20025;-63
2022/05/07 05:58:35;;;;;;;6.70;6.40;;;;;;;18.50;39.24;101485.94;5051633;28;20463;-62
2022/05/07 06:01:06;;;;;;;7.00;6.70;;;;;;;18.64;39.56;101478.75;5054759;28;20025;-62
2022/05/07 06:03:32;;;;;;;6.95;6.65;;;;;;;18.68;39.68;101498.84;5052294;28;20032;-63
2022/05/07 06:05:57;;;;;;;6.97;6.68;;;;;;;18.55;39.27;101498.78;5054189;28;20465;-64
2022/05/07 06:08:23;;;;;;;6.70;6.40;;;;;;;18.60;39.52;101501.69;5054382;28;20533;-62
2022/05/07 06:10:54;;;;;;;6.90;6.60;;;;;;;17.52;41.65;101493.34;5051307;28;20032;-63
2022/05/07 06:13:19;;;;;;;6.70;6.40;;;;;;;19.24;37.42;101503.81;5039537;28;20492;-61
2022/05/07 06:15:49;;;;;;;6.80;6.50;;;;;;;20.33;36.15;101501.25;5053557;28;20067;-62
2022/05/07 06:18:14;;;;;;;6.78;6.47;;;;;;;20.58;35.79;101501.38;5057743;28;20025;-63
2022/05/07 06:20:40;;;;;;;7.03;6.72;;;;;;;20.03;35.88;101500.16;5053076;28;20031;-62
2022/05/07 06:23:05;;;;;;;6.70;6.40;;;;;;;21.59;35.54;101496.81;5052671;28;20047;-63
2022/05/07 06:28:15;;;;;;;6.70;6.40;;;;;;;21.84;33.87;101500.28;5048009;28;20078;-62
2022/05/07 06:30:40;;;;;;;6.80;6.50;;;;;;;22.20;33.79;101495.94;5044400;28;20446;-62
2022/05/07 06:33:05;;;;;;;6.85;6.55;;;;;;;23.13;32.27;101498.91;5054485;28;20019;-63
2022/05/07 06:35:32;;;;;;;6.53;6.22;;;;;;;23.35;31.25;101504.56;5053928;28;20475;-62
2022/05/07 06:37:58;;;;;;;6.75;6.45;;;;;;;23.43;32.05;101504.22;5058272;28;20515;-63
2022/05/07 06:40:23;;;;;;;6.90;6.60;;;;;;;20.66;35.93;101505.69;5047940;28;20021;-63
2022/05/07 06:42:49;;;;;;;6.70;6.40;;;;;;;22.34;34.58;101506.34;5052749;28;20480;-63
2022/05/07 06:45:15;;;;;;;6.75;6.45;;;;;;;23.89;32.68;101509.84;5046339;28;20108;-63
2022/05/07 06:47:41;;;;;;;6.85;6.55;;;;;;;24.16;31.14;101507.38;5039180;28;20122;-62
2022/05/07 06:50:07;;;;;;;6.75;6.45;;;;;;;23.84;31.77;101507.00;5053025;28;20033;-63
2022/05/07 06:52:42;;;;;;;6.75;6.45;;;;;;;21.68;34.16;101506.28;5052375;28;20025;-62
2022/05/07 06:55:08;;;;;;;6.63;6.32;;;;;;;25.04;30.07;101512.28;5051029;28;20029;-61
2022/05/07 06:57:33;;;;;;;6.90;6.60;;;;;;;24.47;29.93;101506.13;5048943;28;20035;-63
2022/05/07 06:59:59;;;;;;;7.00;6.70;;;;;;;21.69;33.31;101507.94;5052790;28;20095;-62
2022/05/07 07:02:25;;;;;;;6.97;6.68;;;;;;;25.16;30.06;101514.13;5051180;28;20025;-57
2022/05/07 07:04:50;;;;;;;7.13;6.82;;;;;;;26.42;28.03;101508.75;5037106;28;20083;-62
2022/05/07 07:07:17;;;;;;;6.90;6.60;;;;;;;24.85;29.17;101505.44;5042051;28;20029;-61
2022/05/07 07:09:43;;;;;;;7.07;6.78;;;;;;;25.25;28.76;101499.88;5048748;28;20060;-61
2022/05/07 07:12:10;;;;;;;7.00;6.70;;;;;;;26.68;27.04;101505.22;5051199;28;20025;-62
2022/05/07 07:14:35;;;;;;;7.20;6.90;;;;;;;26.97;27.27;101499.47;5049579;28;20066;-60
2022/05/07 07:17:00;;;;;;;7.20;6.90;;;;;;;28.00;24.95;101508.00;5049391;28;20047;-61
2022/05/07 07:19:26;;;;;;;7.03;6.72;;;;;;;27.02;23.52;101504.09;5053699;28;20464;-62
2022/05/07 07:21:52;;;;;;;6.90;6.60;;;;;;;26.59;21.81;101490.44;5057206;28;20029;-62
2022/05/07 07:24:18;;;;;;;6.82;6.53;;;;;;;25.04;23.25;101498.72;5051152;28;20021;-62
2022/05/07 07:26:44;;;;;;;7.13;6.82;;;;;;;25.61;21.89;101498.47;5057040;28;20067;-61
2022/05/07 07:29:09;;;;;;;6.93;6.63;;;;;;;26.57;21.76;101500.72;5058520;28;20480;-62
2022/05/07 07:31:35;;;;;;;7.10;6.80;;;;;;;25.12;22.60;101497.50;5056276;28;20473;-62
2022/05/07 07:34:01;;;;;;;7.00;6.70;;;;;;;25.46;22.62;101502.88;5057162;28;20764;-63
2022/05/07 07:36:26;;;;;;;7.07;6.78;;;;;;;24.99;22.23;101497.81;5043702;28;20051;-62
2022/05/07 07:38:52;;;;;;;7.03;6.72;;;;;;;24.54;23.15;101493.25;5058857;28;20472;-61
2022/05/07 07:41:17;;;;;;;6.93;6.63;;;;;;;24.30;23.07;101489.78;5046630;28;20036;-61
2022/05/07 07:43:43;;;;;;;6.90;6.60;;;;;;;25.27;22.04;101505.88;5051565;28;20075;-62
2022/05/07 07:48:52;;;;;;;6.63;6.32;;;;;;;24.88;22.59;101509.56;5059051;28;20070;-61
2022/05/07 07:51:18;;;;;;;7.03;6.72;;;;;;;23.51;24.23;101499.50;5050188;28;20056;-63
2022/05/07 07:53:44;;;;;;;6.70;6.40;;;;;;;24.04;22.60;101507.44;5053212;28;20102;-61
2022/05/07 07:56:10;;;;;;;7.03;6.72;;;;;;;22.87;24.48;101508.28;5048594;28;20071;-62
2022/05/07 07:58:35;;;;;;;7.00;6.70;;;;;;;23.13;24.48;101498.06;5055165;28;20037;-62
2022/05/07 08:01:01;;;;;;;6.93;6.63;;;;;;;23.12;23.77;101491.00;5054959;28;20106;-61
2022/05/07 08:03:26;;;;;;;6.75;6.45;;;;;;;23.33;24.15;101492.31;5037480;28;20144;-62
2022/05/07 08:05:53;;;;;;;7.22;6.93;;;;;;;22.61;23.98;101498.66;5046653;28;20103;-61
2022/05/07 08:13:53;;;;;;;6.90;6.60;;;;;;;22.44;25.77;101513.06;5053046;28;20052;-61
2022/05/07 08:16:20;;;;;;;6.65;6.35;;;;;;;23.25;23.69;101490.78;5049911;28;20032;-61
2022/05/07 08:18:47;;;;;;;6.82;6.53;;;;;;;22.91;24.82;101484.28;5046864;28;20087;-62
2022/05/07 08:21:13;;;;;;;7.25;6.95;;;;;;;23.11;24.49;101473.13;5078916;28;20021;-62
2022/05/07 08:23:39;;;;;;;7.20;6.90;;;;;;;22.00;25.20;101472.66;5045545;28;20034;-63
2022/05/07 08:26:06;;;;;;;7.25;6.95;;;;;;;22.59;24.01;101479.13;5047617;28;20110;-62
2022/05/07 08:28:32;;;;;;;6.80;6.50;;;;;;;21.91;25.51;101467.78;5046739;28;20174;-62
2022/05/07 08:30:58;;;;;;;6.80;6.50;;;;;;;22.36;25.20;101470.97;5057129;28;20020;-63
2022/05/07 08:33:24;;;;;;;7.10;6.80;;;;;;;22.60;24.00;101475.38;5055405;28;20021;-62
2022/05/07 08:35:50;;;;;;;6.90;6.60;;;;;;;23.77;23.71;101471.09;5050793;28;20025;-63
2022/05/07 08:38:15;;;;;;;7.10;6.80;;;;;;;22.58;24.35;101488.31;5051452;28;20025;-62
2022/05/07 08:40:41;;;;;;;6.97;6.68;;;;;;;22.65;24.99;101473.88;5056732;28;20037;-62
2022/05/07 08:43:08;;;;;;;6.80;6.50;;;;;;;23.32;24.29;101471.72;5053749;28;20476;-63
2022/05/07 08:45:39;;;;;;;6.80;6.50;;;;;;;22.70;24.29;101477.53;5043994;28;20475;-63
2022/05/07 08:48:06;;;;;;;6.80;6.50;;;;;;;23.68;23.80;101471.47;5045278;28;20104;-63
2022/05/07 08:50:31;;;;;;;7.30;7.00;;;;;;;21.55;24.75;101437.03;5061408;28;20021;-62
2022/05/07 08:52:57;;;;;;;6.95;6.65;;;;;;;22.73;24.25;101476.22;5053214;28;20067;-62
2022/05/07 08:55:23;;;;;;;6.40;6.13;;;;;;;22.01;24.97;101468.06;5060485;28;20016;-62
2022/05/07 08:57:53;;;;;;;6.80;6.50;;;;;;;22.42;24.66;101470.03;5048610;28;20053;-62
2022/05/07 09:00:21;;;;;;;6.75;6.45;;;;;;;23.40;22.98;101476.78;5062275;28;20120;-63
2022/05/07 09:02:50;;;;;;;6.72;6.43;;;;;;;22.19;25.87;101464.56;5046064;28;20484;-63
2022/05/07 09:05:19;;;;;;;6.80;6.50;;;;;;;21.94;25.50;101461.91;5056480;28;20199;-62
2022/05/07 09:07:56;;;;;;;6.60;6.30;;;;;;;21.51;25.59;101455.56;5067176;28;20476;-63
2022/05/07 09:10:26;;;;;;;7.10;6.80;;;;;;;21.18;26.17;101466.66;5059275;28;20476;-62
2022/05/07 09:12:52;;;;;;;6.75;6.45;;;;;;;21.54;25.44;101466.97;5072516;28;20044;-62
2022/05/07 09:15:17;;;;;;;6.75;6.45;;;;;;;22.13;24.70;101460.06;5054172;28;20430;-62
2022/05/07 09:17:46;;;;;;;6.60;6.30;;;;;;;22.09;25.63;101464.25;5050348;28;20481;-63
2022/05/07 09:20:18;;;;;;;6.70;6.40;;;;;;;21.83;26.25;101470.81;5058061;28;20021;-62
2022/05/07 09:22:53;;;;;;;6.60;6.30;;;;;;;21.49;27.21;101462.22;5050626;28;20479;-63
2022/05/07 09:25:24;;;;;;;6.70;6.40;;;;;;;21.16;26.79;101449.88;5061272;28;20431;-63
2022/05/07 09:27:51;;;;;;;6.75;6.45;;;;;;;21.96;26.97;101451.69;5065588;28;20025;-61
2022/05/07 09:30:22;;;;;;;6.80;6.50;;;;;;;22.26;25.94;101454.47;5050005;28;20032;-64
2022/05/07 09:32:50;;;;;;;6.80;6.50;;;;;;;20.89;27.16;101456.56;5057142;28;20035;-63
2022/05/07 09:38:01;;;;;;;7.22;6.93;;;;;;;20.61;27.26;101455.09;5054621;28;20549;-63
2022/05/07 09:40:31;;;;;;;6.68;6.38;;;;;;;20.41;27.20;101447.09;5051557;28;20032;-64
2022/05/07 09:42:57;;;;;;;7.00;6.70;;;;;;;21.09;26.65;101451.00;5063421;28;20013;-63
2022/05/07 09:45:30;;;;;;;6.70;6.40;;;;;;;20.31;27.36;101452.16;5062430;28;20424;-63
2022/05/07 09:47:58;;;;;;;6.80;6.50;;;;;;;20.44;28.61;101451.28;5056393;28;20024;-62
2022/05/07 09:50:43;;;;;;;6.85;6.55;;;;;;;20.03;28.41;101428.25;5048698;28;20090;-63
2022/05/07 09:58:47;;;;;;;7.25;6.95;;;;;;;20.02;27.77;101429.31;5050414;28;20048;-62
2022/05/07 10:01:21;;;;;;;7.10;6.80;;;;;;;20.68;27.46;101453.19;5055418;28;20029;-62
2022/05/07 10:04:34;;;;;;;7.10;6.80;;;;;;;20.68;28.36;101455.06;5047005;28;20033;-70
2022/05/07 10:07:25;;;;;;;6.72;6.43;;;;;;;20.16;28.20;101435.44;5023999;28;20036;-61
2022/05/07 10:10:24;;;;;;;6.82;6.53;;;;;;;20.06;28.22;101430.53;5039148;28;20116;-62
2022/05/07 10:12:52;;;;;;;7.20;6.90;;;;;;;20.30;28.39;101428.13;5051088;28;20104;-60
2022/05/07 10:15:23;;;;;;;7.20;6.90;;;;;;;20.23;29.29;101433.56;5053330;28;20086;-61
2022/05/07 10:18:06;;;;;;;6.68;6.38;;;;;;;20.32;29.42;101432.25;5052826;28;20075;-60
2022/05/07 10:20:40;;;;;;;6.60;6.30;;;;;;;20.61;28.95;101436.22;5053683;28;20033;-60
2022/05/07 10:23:08;;;;;;;7.10;6.80;;;;;;;20.42;28.53;101442.56;5054237;28;20029;-62
2022/05/07 10:25:35;;;;;;;6.70;6.40;;;;;;;20.43;27.69;101439.66;5053079;28;20033;-61
2022/05/07 10:28:14;;;;;;;6.70;6.40;;;;;;;20.62;28.08;101434.34;5054441;28;20021;-60
2022/05/07 10:30:50;;;;;;;6.80;6.50;;;;;;;20.29;28.81;101419.22;5053999;28;20115;-61
2022/05/07 10:33:16;;;;;;;6.63;6.32;;;;;;;20.17;29.81;101439.78;5053819;28;20020;-60
2022/05/07 10:35:45;;;;;;;7.28;6.97;;;;;;;19.80;30.76;101414.50;5053260;28;20555;-62
2022/05/07 10:38:13;;;;;;;7.18;6.88;;;;;;;20.39;30.34;101419.56;5053676;28;20099;-62
2022/05/07 10:40:57;;;;;;;6.40;6.10;;;;;;;20.25;30.83;101423.38;5047428;28;20021;-62
2022/05/07 10:43:30;;;;;;;6.50;6.20;;;;;;;20.42;30.93;101427.22;5052689;28;20036;-61
2022/05/07 10:46:00;;;;;;;6.60;6.30;;;;;;;20.49;31.50;101413.72;5053858;28;20511;-61
2022/05/07 10:48:26;;;;;;;6.70;6.40;;;;;;;20.51;31.34;101400.84;5053628;28;20029;-61
2022/05/07 10:50:55;;;;;;;6.60;6.30;;;;;;;20.47;32.08;101391.53;5053844;28;20132;-60
2022/05/07 10:53:21;;;;;;;6.55;6.25;;;;;;;21.39;31.65;101399.84;5044172;28;20024;-61
2022/05/07 10:55:50;;;;;;;6.65;6.35;;;;;;;21.11;31.84;101386.84;5049377;28;20027;-62
2022/05/07 10:58:25;;;;;;;6.43;6.13;;;;;;;20.84;33.07;101388.94;5052731;28;20052;-61
2022/05/07 11:00:51;;;;;;;6.80;6.50;;;;;;;20.62;33.36;101391.22;5053037;28;20381;-60
2022/05/07 11:03:25;;;;;;;6.80;6.50;;;;;;;21.27;32.46;101391.63;5062802;28;20032;-61
2022/05/07 11:05:50;;;;;;;6.68;6.38;;;;;;;21.21;31.68;101396.06;5056307;28;20032;-62
2022/05/07 11:08:16;;;;;;;6.85;6.55;;;;;;;20.81;32.06;101376.75;5044365;28;20435;-62
2022/05/07 11:10:42;;;;;;;6.70;6.40;;;;;;;20.97;31.43;101399.63;5053105;28;20045;-62
2022/05/07 11:13:08;;;;;;;6.60;6.30;;;;;;;21.22;30.66;101373.41;5052900;28;20021;-62
2022/05/07 11:15:34;;;;;;;6.70;6.40;;;;;;;21.28;31.69;101379.00;5053106;28;20032;-61
2022/05/07 11:18:01;;;;;;;6.60;6.30;;;;;;;20.98;31.54;101377.00;5052061;28;20048;-61
2022/05/07 11:20:35;;;;;;;6.78;6.47;;;;;;;21.49;31.27;101375.84;5053229;28;20029;-62
2022/05/07 11:23:03;;;;;;;6.93;6.63;;;;;;;21.18;31.15;101368.69;5049576;28;20074;-62
2022/05/07 11:25:28;;;;;;;6.78;6.47;;;;;;;21.90;30.68;101371.59;5052059;28;20028;-61
2022/05/07 11:27:56;;;;;;;6.18;5.97;;;;;;;21.11;30.21;101373.34;5052916;28;20039;-62
2022/05/07 11:30:21;;;;;;;6.97;6.68;;;;;;;21.32;30.77;101364.03;5052494;28;20037;-62
2022/05/07 11:32:47;;;;;;;6.70;6.40;;;;;;;21.19;30.84;101364.94;5055924;28;20029;-62
2022/05/07 11:35:13;;;;;;;6.47;6.18;;;;;;;21.72;29.92;101361.63;5050242;28;20025;-60
2022/05/07 11:37:46;;;;;;;6.57;6.28;;;;;;;21.90;30.06;101352.69;5047687;28;20087;-63
2022/05/07 11:40:13;;;;;;;6.72;6.43;;;;;;;22.50;29.12;101353.44;5052667;28;20025;-61
2022/05/07 11:42:46;;;;;;;6.60;6.30;;;;;;;22.01;29.86;101352.69;5052601;28;20043;-60
2022/05/07 11:45:33;;;;;;;6.90;6.60;;;;;;;21.42;30.60;101327.34;5052495;28;20036;-63
2022/05/07 11:47:59;;;;;;;6.65;6.35;;;;;;;21.23;30.20;101356.19;5052392;28;20037;-62
2022/05/07 11:50:29;;;;;;;6.70;6.40;;;;;;;21.55;30.12;101339.03;5051066;28;20033;-61
2022/05/07 11:52:55;;;;;;;6.53;6.22;;;;;;;21.10;30.56;101347.41;5046632;28;20036;-61
2022/05/07 11:55:29;;;;;;;6.75;6.45;;;;;;;21.27;29.71;101343.06;5056726;28;20032;-62
2022/05/07 11:57:56;;;;;;;6.50;6.20;;;;;;;21.55;29.21;101330.94;5049998;28;20079;-62
2022/05/07 12:00:29;;;;;;;6.45;6.15;;;;;;;21.23;30.15;101334.59;5052589;28;20075;-62
2022/05/07 12:03:01;;;;;;;6.57;6.28;;;;;;;20.82;29.52;101356.81;5052472;28;20043;-61